createdAt,value
2017-08-27T00:00:21.697Z,20.6
2017-08-27T00:01:22.540Z,20.5
2017-08-27T00:02:23.198Z,20.5
2017-08-27T00:03:23.888Z,20.5
2017-08-27T00:04:24.545Z,20.5
2017-08-27T00:05:25.203Z,20.4
2017-08-27T00:06:26.009Z,20.5
2017-08-27T00:07:26.666Z,20.4
2017-08-27T00:08:27.323Z,20.4
2017-08-27T00:09:27.978Z,20.3
2017-08-27T00:10:28.637Z,20.4
2017-08-27T00:11:29.444Z,20.3
2017-08-27T00:12:30.101Z,20.3
2017-08-27T00:13:30.758Z,20.3
2017-08-27T00:14:31.450Z,20.3
2017-08-27T00:15:32.108Z,20.4
2017-08-27T00:16:32.914Z,20.4
2017-08-27T00:17:33.582Z,20.3
2017-08-27T00:18:34.228Z,20.3
2017-08-27T00:19:34.886Z,20.2
2017-08-27T00:20:35.543Z,20.4
2017-08-27T00:21:36.353Z,20.3
2017-08-27T00:22:37.014Z,20.3
2017-08-27T00:23:37.671Z,20.2
2017-08-27T00:24:38.329Z,20.3
2017-08-27T00:25:38.985Z,20.3
2017-08-27T00:26:39.793Z,20.3
2017-08-27T00:27:40.483Z,20.3
2017-08-27T00:28:41.140Z,20.3
2017-08-27T00:29:41.803Z,20.3
2017-08-27T00:30:42.456Z,20.3
2017-08-27T00:31:43.267Z,20.3
2017-08-27T00:32:43.924Z,20.3
2017-08-27T00:33:44.581Z,20.3
2017-08-27T00:34:45.236Z,20.3
2017-08-27T00:35:45.897Z,20.3
2017-08-27T00:36:46.702Z,20.3
2017-08-27T00:37:47.362Z,20.3
2017-08-27T00:38:48.017Z,20.3
2017-08-27T00:39:48.674Z,20.2
2017-08-27T00:40:49.371Z,20.3
2017-08-27T00:41:50.174Z,20.1
2017-08-27T00:42:50.833Z,20.1
2017-08-27T00:43:51.489Z,20.2
2017-08-27T00:44:52.148Z,20.2
2017-08-27T00:45:52.837Z,20.2
2017-08-27T00:46:53.796Z,20.2
2017-08-27T00:47:54.453Z,20.3
2017-08-27T00:48:55.117Z,20.2
2017-08-27T00:49:55.768Z,20.1
2017-08-27T00:50:56.431Z,20.2
2017-08-27T00:51:57.333Z,20.2
2017-08-27T00:52:57.989Z,20.1
2017-08-27T00:53:58.646Z,20.2
2017-08-27T00:54:59.302Z,20.2
2017-08-27T00:55:59.993Z,20.2
2017-08-27T00:57:00.802Z,20.2
2017-08-27T00:58:01.458Z,20.1
2017-08-27T00:59:02.116Z,20.2
2017-08-27T01:00:02.775Z,20.2
2017-08-27T01:01:03.463Z,20.2
2017-08-27T01:02:04.271Z,20.1
2017-08-27T01:03:04.927Z,20.2
2017-08-27T01:04:05.621Z,20.1
2017-08-27T01:05:06.276Z,20.1
2017-08-27T01:06:06.933Z,20.1
2017-08-27T01:07:07.741Z,20.1
2017-08-27T01:08:08.400Z,20.1
2017-08-27T01:09:09.057Z,20.1
2017-08-27T01:10:09.713Z,20.1
2017-08-27T01:11:10.368Z,20.1
2017-08-27T01:12:11.186Z,20.0
2017-08-27T01:13:11.841Z,20.1
2017-08-27T01:14:12.498Z,20.1
2017-08-27T01:15:13.152Z,20.0
2017-08-27T01:16:13.810Z,20.2
2017-08-27T01:17:14.614Z,20.1
2017-08-27T01:18:15.270Z,20.2
2017-08-27T01:19:15.930Z,20.1
2017-08-27T01:20:16.617Z,20.1
2017-08-27T01:21:17.274Z,20.2
2017-08-27T01:22:18.180Z,20.1
2017-08-27T01:23:18.836Z,20.1
2017-08-27T01:24:19.491Z,20.1
2017-08-27T01:25:20.146Z,20.1
2017-08-27T01:26:20.802Z,20.1
2017-08-27T01:27:21.609Z,20.0
2017-08-27T01:28:22.264Z,20.1
2017-08-27T01:29:22.922Z,20.1
2017-08-27T01:30:23.579Z,20.1
2017-08-27T01:31:24.234Z,20.1
2017-08-27T01:32:25.040Z,20.0
2017-08-27T01:33:25.696Z,20.1
2017-08-27T01:34:26.390Z,20.1
2017-08-27T01:35:27.092Z,20.1
2017-08-27T01:36:27.751Z,20.2
2017-08-27T01:37:28.595Z,20.1
2017-08-27T01:38:29.284Z,20.2
2017-08-27T01:39:29.945Z,20.1
2017-08-27T01:40:30.599Z,20.2
2017-08-27T01:41:31.255Z,20.2
2017-08-27T01:42:32.062Z,20.2
2017-08-27T01:43:32.718Z,20.2
2017-08-27T01:44:33.377Z,20.2
2017-08-27T01:45:34.067Z,20.2
2017-08-27T01:46:34.724Z,20.2
2017-08-27T01:47:35.582Z,20.2
2017-08-27T01:48:36.238Z,20.2
2017-08-27T01:49:36.893Z,20.2
2017-08-27T01:50:37.555Z,20.2
2017-08-27T01:51:38.205Z,20.2
2017-08-27T01:52:39.011Z,20.1
2017-08-27T01:53:39.667Z,20.1
2017-08-27T01:54:40.321Z,20.2
2017-08-27T01:55:40.980Z,20.2
2017-08-27T01:56:41.633Z,20.2
2017-08-27T01:57:42.591Z,20.1
2017-08-27T01:58:43.246Z,20.1
2017-08-27T01:59:43.903Z,20.2
2017-08-27T02:00:44.559Z,20.1
2017-08-27T02:01:45.213Z,20.2
2017-08-27T02:02:46.020Z,20.1
2017-08-27T02:03:46.674Z,20.2
2017-08-27T02:04:47.331Z,20.1
2017-08-27T02:05:47.986Z,20.1
2017-08-27T02:06:48.643Z,20.1
2017-08-27T02:07:49.447Z,20.1
2017-08-27T02:08:50.105Z,20.1
2017-08-27T02:09:50.760Z,20.1
2017-08-27T02:10:51.416Z,20.1
2017-08-27T02:11:52.072Z,20.1
2017-08-27T02:12:52.916Z,20.1
2017-08-27T02:13:53.605Z,20.1
2017-08-27T02:14:54.260Z,20.1
2017-08-27T02:15:54.915Z,20.1
2017-08-27T02:16:55.571Z,20.1
2017-08-27T02:17:56.477Z,20.1
2017-08-27T02:18:57.133Z,20.1
2017-08-27T02:19:57.788Z,20.0
2017-08-27T02:20:58.444Z,20.0
2017-08-27T02:21:59.098Z,20.0
2017-08-27T02:22:59.904Z,20.0
2017-08-27T02:24:00.559Z,19.9
2017-08-27T02:25:01.214Z,19.9
2017-08-27T02:26:01.871Z,20.0
2017-08-27T02:27:02.535Z,19.9
2017-08-27T02:28:03.487Z,19.9
2017-08-27T02:29:04.139Z,19.9
2017-08-27T02:30:04.795Z,19.8
2017-08-27T02:31:05.450Z,19.8
2017-08-27T02:32:06.105Z,19.8
2017-08-27T02:33:07.013Z,19.7
2017-08-27T02:34:07.703Z,19.7
2017-08-27T02:35:08.361Z,19.7
2017-08-27T02:36:09.017Z,19.6
2017-08-27T02:37:09.672Z,19.6
2017-08-27T02:38:10.628Z,19.6
2017-08-27T02:39:11.284Z,19.5
2017-08-27T02:40:11.940Z,19.6
2017-08-27T02:41:12.601Z,19.6
2017-08-27T02:42:13.258Z,19.5
2017-08-27T02:43:14.218Z,19.5
2017-08-27T02:44:14.908Z,19.5
2017-08-27T02:45:15.563Z,19.4
2017-08-27T02:46:16.217Z,19.4
2017-08-27T02:47:16.877Z,19.5
2017-08-27T02:48:17.814Z,19.5
2017-08-27T02:49:18.470Z,19.5
2017-08-27T02:50:19.164Z,19.4
2017-08-27T02:51:19.814Z,19.3
2017-08-27T02:52:20.472Z,19.3
2017-08-27T02:53:21.396Z,19.3
2017-08-27T02:54:22.039Z,19.3
2017-08-27T02:55:22.694Z,19.3
2017-08-27T02:56:23.347Z,19.3
2017-08-27T02:57:24.004Z,19.3
2017-08-27T02:58:24.960Z,19.2
2017-08-27T02:59:25.617Z,19.2
2017-08-27T03:00:26.271Z,19.3
2017-08-27T03:01:26.927Z,19.2
2017-08-27T03:02:27.581Z,19.3
2017-08-27T03:03:28.537Z,19.2
2017-08-27T03:04:29.190Z,19.2
2017-08-27T03:05:29.850Z,19.1
2017-08-27T03:06:30.501Z,19.2
2017-08-27T03:07:31.156Z,19.1
2017-08-27T03:08:32.063Z,19.1
2017-08-27T03:09:32.721Z,19.1
2017-08-27T03:10:33.409Z,19.1
2017-08-27T03:11:34.063Z,19.0
2017-08-27T03:12:34.721Z,19.1
2017-08-27T03:13:35.675Z,19.0
2017-08-27T03:14:36.332Z,19.0
2017-08-27T03:15:36.986Z,19.0
2017-08-27T03:16:37.644Z,19.0
2017-08-27T03:17:38.307Z,19.0
2017-08-27T03:18:39.204Z,19.0
2017-08-27T03:19:39.862Z,19.0
2017-08-27T03:20:40.533Z,19.0
2017-08-27T03:21:41.217Z,18.9
2017-08-27T03:22:41.872Z,19.0
2017-08-27T03:23:42.779Z,19.0
2017-08-27T03:24:43.435Z,18.9
2017-08-27T03:25:44.089Z,18.9
2017-08-27T03:26:44.745Z,18.9
2017-08-27T03:27:45.400Z,18.8
2017-08-27T03:28:46.308Z,18.8
2017-08-27T03:29:46.966Z,18.8
2017-08-27T03:30:47.622Z,18.9
2017-08-27T03:31:48.277Z,18.8
2017-08-27T03:32:48.934Z,18.9
2017-08-27T03:33:50.145Z,18.9
2017-08-27T03:34:50.796Z,18.8
2017-08-27T03:35:51.453Z,18.8
2017-08-27T03:36:52.107Z,18.8
2017-08-27T03:37:52.762Z,18.8
2017-08-27T03:38:53.669Z,18.8
2017-08-27T03:39:54.325Z,18.8
2017-08-27T03:40:54.980Z,18.8
2017-08-27T03:41:55.669Z,18.8
2017-08-27T03:42:56.363Z,18.8
2017-08-27T03:43:57.317Z,18.8
2017-08-27T03:44:57.972Z,18.9
2017-08-27T03:45:58.665Z,18.8
2017-08-27T03:46:59.320Z,18.9
2017-08-27T03:47:59.975Z,18.8
2017-08-27T03:49:00.934Z,18.8
2017-08-27T03:50:01.588Z,18.8
2017-08-27T03:51:02.242Z,18.7
2017-08-27T03:52:02.897Z,18.7
2017-08-27T03:53:03.552Z,18.9
2017-08-27T03:54:04.456Z,18.8
2017-08-27T03:55:05.111Z,18.7
2017-08-27T03:56:05.769Z,18.8
2017-08-27T03:57:06.426Z,18.8
2017-08-27T03:58:07.081Z,18.8
2017-08-27T03:59:08.035Z,18.7
2017-08-27T04:00:08.693Z,18.7
2017-08-27T04:01:09.348Z,18.7
2017-08-27T04:02:10.011Z,18.7
2017-08-27T04:03:10.667Z,18.7
2017-08-27T04:04:11.625Z,18.6
2017-08-27T04:05:12.283Z,18.7
2017-08-27T04:06:12.944Z,18.7
2017-08-27T04:07:13.596Z,18.7
2017-08-27T04:08:14.300Z,18.6
2017-08-27T04:09:15.196Z,18.7
2017-08-27T04:10:15.853Z,18.7
2017-08-27T04:11:16.509Z,18.7
2017-08-27T04:12:17.167Z,18.8
2017-08-27T04:13:17.822Z,18.8
2017-08-27T04:14:18.813Z,18.8
2017-08-27T04:15:19.470Z,18.8
2017-08-27T04:16:20.126Z,18.8
2017-08-27T04:17:20.786Z,18.8
2017-08-27T04:18:21.443Z,18.7
2017-08-27T04:19:22.349Z,18.8
2017-08-27T04:20:23.005Z,18.8
2017-08-27T04:21:23.662Z,18.7
2017-08-27T04:22:24.318Z,18.7
2017-08-27T04:23:24.977Z,18.6
2017-08-27T04:24:25.884Z,18.6
2017-08-27T04:25:26.541Z,18.6
2017-08-27T04:26:27.200Z,18.6
2017-08-27T04:27:27.894Z,18.5
2017-08-27T04:28:28.552Z,18.5
2017-08-27T04:29:29.521Z,18.5
2017-08-27T04:30:30.179Z,18.5
2017-08-27T04:31:30.873Z,18.5
2017-08-27T04:32:31.530Z,18.4
2017-08-27T04:33:32.187Z,18.4
2017-08-27T04:34:33.146Z,18.3
2017-08-27T04:35:33.802Z,18.2
2017-08-27T04:36:34.461Z,18.3
2017-08-27T04:37:35.118Z,18.2
2017-08-27T04:38:35.775Z,18.2
2017-08-27T04:39:36.733Z,18.2
2017-08-27T04:40:37.401Z,18.2
2017-08-27T04:41:38.058Z,18.1
2017-08-27T04:42:38.718Z,18.0
2017-08-27T04:43:39.375Z,18.1
2017-08-27T04:44:40.283Z,18.0
2017-08-27T04:45:40.943Z,18.0
2017-08-27T04:46:41.603Z,18.0
2017-08-27T04:47:42.260Z,18.0
2017-08-27T04:48:42.919Z,18.1
2017-08-27T04:49:43.829Z,18.0
2017-08-27T04:50:44.488Z,18.0
2017-08-27T04:51:45.148Z,17.9
2017-08-27T04:52:45.807Z,18.0
2017-08-27T04:53:46.466Z,18.0
2017-08-27T04:54:47.427Z,17.9
2017-08-27T04:55:48.087Z,18.0
2017-08-27T04:56:48.746Z,17.9
2017-08-27T04:57:49.408Z,18.0
2017-08-27T04:58:50.067Z,17.9
2017-08-27T04:59:50.976Z,18.0
2017-08-27T05:00:51.641Z,18.0
2017-08-27T05:01:52.300Z,18.0
2017-08-27T05:02:52.957Z,17.9
2017-08-27T05:03:53.616Z,17.9
2017-08-27T05:04:54.526Z,17.9
2017-08-27T05:05:55.186Z,18.0
2017-08-27T05:06:55.847Z,18.0
2017-08-27T05:07:56.507Z,17.9
2017-08-27T05:08:57.169Z,17.9
2017-08-27T05:09:58.078Z,17.9
2017-08-27T05:10:58.738Z,17.9
2017-08-27T05:11:59.397Z,18.0
2017-08-27T05:13:00.058Z,18.0
2017-08-27T05:14:00.720Z,18.0
2017-08-27T05:15:01.680Z,18.0
2017-08-27T05:16:02.340Z,18.1
2017-08-27T05:17:03.002Z,18.0
2017-08-27T05:18:03.662Z,18.0
2017-08-27T05:19:04.322Z,18.0
2017-08-27T05:20:05.269Z,18.1
2017-08-27T05:21:05.928Z,18.1
2017-08-27T05:22:06.588Z,18.0
2017-08-27T05:23:07.246Z,18.1
2017-08-27T05:24:07.907Z,18.1
2017-08-27T05:25:08.827Z,18.0
2017-08-27T05:26:09.479Z,18.2
2017-08-27T05:27:10.140Z,18.2
2017-08-27T05:28:10.798Z,18.2
2017-08-27T05:29:11.459Z,18.2
2017-08-27T05:30:12.422Z,18.3
2017-08-27T05:31:13.089Z,18.3
2017-08-27T05:32:13.747Z,18.2
2017-08-27T05:33:14.406Z,18.2
2017-08-27T05:34:15.067Z,18.3
2017-08-27T05:35:15.979Z,18.4
2017-08-27T05:36:16.639Z,18.4
2017-08-27T05:37:17.300Z,18.4
2017-08-27T05:38:17.960Z,18.5
2017-08-27T05:39:18.618Z,18.5
2017-08-27T05:40:19.530Z,18.5
2017-08-27T05:41:20.191Z,18.5
2017-08-27T05:42:20.852Z,18.6
2017-08-27T05:43:21.514Z,18.5
2017-08-27T05:44:22.176Z,18.6
2017-08-27T05:45:23.088Z,18.6
2017-08-27T05:46:23.745Z,18.5
2017-08-27T05:47:24.407Z,18.6
2017-08-27T05:48:25.078Z,18.7
2017-08-27T05:49:25.741Z,18.7
2017-08-27T05:50:26.688Z,18.7
2017-08-27T05:51:27.349Z,18.8
2017-08-27T05:52:28.009Z,18.9
2017-08-27T05:53:28.677Z,18.7
2017-08-27T05:54:29.336Z,18.7
2017-08-27T05:55:30.300Z,18.8
2017-08-27T05:56:30.963Z,18.8
2017-08-27T05:57:31.627Z,18.9
2017-08-27T05:58:32.287Z,19.0
2017-08-27T05:59:32.946Z,18.9
2017-08-27T06:00:33.857Z,19.0
2017-08-27T06:01:34.526Z,19.1
2017-08-27T06:02:35.179Z,19.1
2017-08-27T06:03:35.838Z,19.1
2017-08-27T06:04:36.497Z,19.2
2017-08-27T06:05:37.408Z,19.2
2017-08-27T06:06:38.069Z,19.3
2017-08-27T06:07:38.731Z,19.2
2017-08-27T06:08:39.390Z,19.2
2017-08-27T06:09:40.048Z,19.3
2017-08-27T06:10:40.958Z,19.3
2017-08-27T06:11:41.619Z,19.5
2017-08-27T06:12:42.280Z,19.4
2017-08-27T06:13:42.939Z,19.5
2017-08-27T06:14:43.598Z,19.5
2017-08-27T06:15:44.508Z,19.6
2017-08-27T06:16:45.169Z,19.6
2017-08-27T06:17:45.831Z,19.7
2017-08-27T06:18:46.489Z,19.7
2017-08-27T06:19:47.148Z,19.7
2017-08-27T06:20:48.108Z,19.7
2017-08-27T06:21:48.767Z,19.8
2017-08-27T06:22:49.427Z,19.8
2017-08-27T06:23:50.086Z,19.8
2017-08-27T06:24:50.746Z,19.9
2017-08-27T06:25:51.657Z,19.9
2017-08-27T06:26:52.317Z,20.0
2017-08-27T06:27:52.979Z,20.0
2017-08-27T06:28:53.637Z,20.0
2017-08-27T06:29:54.296Z,20.0
2017-08-27T06:30:55.205Z,20.0
2017-08-27T06:31:55.867Z,20.1
2017-08-27T06:32:56.529Z,20.1
2017-08-27T06:33:57.192Z,20.2
2017-08-27T06:34:57.887Z,20.2
2017-08-27T06:35:58.848Z,20.2
2017-08-27T06:36:59.510Z,20.3
2017-08-27T06:38:00.172Z,20.3
2017-08-27T06:39:00.833Z,20.4
2017-08-27T06:40:01.494Z,20.4
2017-08-27T06:41:02.411Z,20.5
2017-08-27T06:42:03.067Z,20.5
2017-08-27T06:43:03.730Z,20.7
2017-08-27T06:44:04.394Z,20.7
2017-08-27T06:45:05.058Z,20.8
2017-08-27T06:46:06.026Z,20.8
2017-08-27T06:47:06.684Z,20.8
2017-08-27T06:48:07.344Z,20.7
2017-08-27T06:49:08.040Z,20.8
2017-08-27T06:50:08.707Z,20.9
2017-08-27T06:51:09.669Z,21.1
2017-08-27T06:52:10.333Z,21.1
2017-08-27T06:53:10.994Z,21.2
2017-08-27T06:54:11.656Z,21.4
2017-08-27T06:55:12.320Z,21.4
2017-08-27T06:56:13.231Z,21.5
2017-08-27T06:57:13.897Z,21.6
2017-08-27T06:58:14.561Z,21.6
2017-08-27T06:59:15.222Z,21.7
2017-08-27T07:00:15.884Z,21.7
2017-08-27T07:01:16.798Z,21.8
2017-08-27T07:02:17.466Z,21.8
2017-08-27T07:03:18.125Z,21.7
2017-08-27T07:04:18.788Z,21.8
2017-08-27T07:05:19.450Z,21.8
2017-08-27T07:06:20.412Z,21.9
2017-08-27T07:07:21.075Z,21.9
2017-08-27T07:08:21.738Z,21.9
2017-08-27T07:09:22.401Z,21.9
2017-08-27T07:10:23.102Z,21.9
2017-08-27T07:11:24.017Z,21.9
2017-08-27T07:12:24.678Z,22.0
2017-08-27T07:13:25.342Z,21.9
2017-08-27T07:14:26.003Z,21.9
2017-08-27T07:15:26.666Z,22.0
2017-08-27T07:16:27.629Z,22.0
2017-08-27T07:17:28.292Z,21.9
2017-08-27T07:18:28.953Z,22.0
2017-08-27T07:19:29.619Z,21.9
2017-08-27T07:20:30.284Z,22.0
2017-08-27T07:21:31.199Z,22.0
2017-08-27T07:22:31.864Z,22.0
2017-08-27T07:23:32.530Z,21.9
2017-08-27T07:24:33.194Z,22.0
2017-08-27T07:25:33.856Z,21.9
2017-08-27T07:26:34.820Z,22.0
2017-08-27T07:27:35.482Z,22.0
2017-08-27T07:28:36.148Z,21.9
2017-08-27T07:29:36.810Z,22.0
2017-08-27T07:30:37.474Z,21.9
2017-08-27T07:31:38.396Z,21.8
2017-08-27T07:32:39.088Z,21.8
2017-08-27T07:33:39.752Z,21.9
2017-08-27T07:34:40.416Z,21.9
2017-08-27T07:35:41.078Z,21.9
2017-08-27T07:36:41.993Z,21.9
2017-08-27T07:37:42.655Z,21.8
2017-08-27T07:38:43.318Z,21.9
2017-08-27T07:39:44.019Z,21.9
2017-08-27T07:40:44.685Z,22.0
2017-08-27T07:41:45.596Z,22.0
2017-08-27T07:42:46.259Z,22.1
2017-08-27T07:43:46.921Z,22.2
2017-08-27T07:44:47.592Z,22.3
2017-08-27T07:45:48.248Z,22.3
2017-08-27T07:46:49.161Z,22.4
2017-08-27T07:47:49.827Z,22.5
2017-08-27T07:48:50.489Z,22.7
2017-08-27T07:49:51.151Z,22.6
2017-08-27T07:50:51.815Z,22.7
2017-08-27T07:51:52.780Z,22.7
2017-08-27T07:52:53.442Z,22.6
2017-08-27T07:53:54.106Z,22.7
2017-08-27T07:54:54.773Z,22.7
2017-08-27T07:55:55.437Z,22.6
2017-08-27T07:56:56.398Z,22.7
2017-08-27T07:57:57.062Z,22.7
2017-08-27T07:58:57.726Z,22.7
2017-08-27T07:59:58.391Z,22.8
2017-08-27T08:00:59.059Z,22.8
2017-08-27T08:01:59.973Z,22.9
2017-08-27T08:03:00.635Z,23.0
2017-08-27T08:04:01.299Z,22.9
2017-08-27T08:05:01.962Z,22.9
2017-08-27T08:06:02.626Z,23.0
2017-08-27T08:07:03.540Z,22.9
2017-08-27T08:08:04.206Z,22.9
2017-08-27T08:09:04.871Z,22.9
2017-08-27T08:10:05.534Z,22.9
2017-08-27T08:11:06.199Z,23.1
2017-08-27T08:12:07.114Z,23.0
2017-08-27T08:13:07.776Z,23.0
2017-08-27T08:14:08.445Z,23.2
2017-08-27T08:15:09.110Z,23.2
2017-08-27T08:16:09.810Z,23.1
2017-08-27T08:17:10.724Z,23.2
2017-08-27T08:18:11.389Z,23.2
2017-08-27T08:19:12.054Z,23.2
2017-08-27T08:20:12.720Z,23.1
2017-08-27T08:21:13.384Z,23.2
2017-08-27T08:22:14.383Z,23.3
2017-08-27T08:23:15.048Z,23.2
2017-08-27T08:24:15.712Z,23.1
2017-08-27T08:25:16.376Z,23.1
2017-08-27T08:26:17.044Z,23.0
2017-08-27T08:27:18.043Z,22.9
2017-08-27T08:28:18.707Z,23.1
2017-08-27T08:29:19.371Z,23.2
2017-08-27T08:30:20.037Z,23.0
2017-08-27T08:31:20.701Z,23.4
2017-08-27T08:32:21.616Z,23.4
2017-08-27T08:33:22.282Z,23.5
2017-08-27T08:34:22.945Z,23.6
2017-08-27T08:35:23.611Z,23.7
2017-08-27T08:36:24.274Z,23.6
2017-08-27T08:37:25.190Z,23.6
2017-08-27T08:38:25.892Z,23.5
2017-08-27T08:39:26.559Z,23.3
2017-08-27T08:40:27.226Z,23.2
2017-08-27T08:41:27.890Z,23.2
2017-08-27T08:42:28.857Z,23.2
2017-08-27T08:43:29.524Z,23.1
2017-08-27T08:44:30.189Z,23.3
2017-08-27T08:45:30.853Z,23.5
2017-08-27T08:46:31.518Z,23.5
2017-08-27T08:47:32.487Z,23.5
2017-08-27T08:48:33.168Z,23.5
2017-08-27T08:49:33.834Z,23.5
2017-08-27T08:50:34.498Z,23.5
2017-08-27T08:51:35.198Z,23.6
2017-08-27T08:52:36.163Z,23.6
2017-08-27T08:53:36.827Z,23.6
2017-08-27T08:54:37.492Z,23.7
2017-08-27T08:55:38.159Z,23.7
2017-08-27T08:56:38.821Z,23.8
2017-08-27T08:57:39.787Z,23.7
2017-08-27T08:58:40.454Z,23.8
2017-08-27T08:59:41.117Z,23.9
2017-08-27T09:00:41.782Z,23.9
2017-08-27T09:01:42.450Z,24.0
2017-08-27T09:02:43.363Z,24.1
2017-08-27T09:03:44.046Z,24.2
2017-08-27T09:04:44.733Z,24.5
2017-08-27T09:05:45.406Z,24.8
2017-08-27T09:06:46.063Z,25.1
2017-08-27T09:07:46.980Z,25.3
2017-08-27T09:08:47.649Z,25.4
2017-08-27T09:09:48.349Z,25.5
2017-08-27T09:10:49.015Z,25.8
2017-08-27T09:11:49.714Z,25.9
2017-08-27T09:12:50.664Z,26.1
2017-08-27T09:13:51.331Z,26.3
2017-08-27T09:14:51.997Z,26.3
2017-08-27T09:15:52.665Z,26.1
2017-08-27T09:16:53.337Z,26.1
2017-08-27T09:17:54.300Z,26.1
2017-08-27T09:18:55.005Z,26.1
2017-08-27T09:19:55.670Z,26.1
2017-08-27T09:20:56.340Z,26.0
2017-08-27T09:21:57.007Z,26.0
2017-08-27T09:22:57.972Z,26.2
2017-08-27T09:23:58.677Z,26.1
2017-08-27T09:24:59.345Z,25.9
2017-08-27T09:26:00.011Z,26.0
2017-08-27T09:27:00.680Z,26.1
2017-08-27T09:28:01.650Z,26.2
2017-08-27T09:29:02.315Z,26.3
2017-08-27T09:30:02.982Z,26.6
2017-08-27T09:31:03.648Z,27.0
2017-08-27T09:32:04.319Z,27.4
2017-08-27T09:33:05.235Z,27.5
2017-08-27T09:34:05.907Z,27.8
2017-08-27T09:35:06.576Z,28.0
2017-08-27T09:36:07.278Z,28.1
2017-08-27T09:37:07.945Z,28.3
2017-08-27T09:38:08.914Z,28.2
2017-08-27T09:39:09.626Z,28.1
2017-08-27T09:40:10.287Z,28.5
2017-08-27T09:41:10.956Z,28.9
2017-08-27T09:42:11.629Z,28.9
2017-08-27T09:43:12.596Z,29.2
2017-08-27T09:44:13.264Z,29.4
2017-08-27T09:45:13.930Z,29.3
2017-08-27T09:46:14.600Z,29.1
2017-08-27T09:47:15.273Z,28.9
2017-08-27T09:48:16.242Z,28.8
2017-08-27T09:49:16.909Z,28.7
2017-08-27T09:50:17.577Z,28.7
2017-08-27T09:51:18.250Z,28.8
2017-08-27T09:52:18.934Z,28.6
2017-08-27T09:53:19.886Z,28.6
2017-08-27T09:54:20.554Z,28.4
2017-08-27T09:55:21.221Z,28.0
2017-08-27T09:56:21.890Z,27.8
2017-08-27T09:57:22.563Z,27.7
2017-08-27T09:58:23.530Z,27.5
2017-08-27T09:59:24.198Z,27.4
2017-08-27T10:00:24.904Z,27.4
2017-08-27T10:01:25.583Z,27.3
2017-08-27T10:02:26.251Z,27.4
2017-08-27T10:03:27.219Z,27.2
2017-08-27T10:04:27.886Z,27.2
2017-08-27T10:05:28.553Z,27.2
2017-08-27T10:06:29.224Z,27.2
2017-08-27T10:07:29.940Z,27.2
2017-08-27T10:08:30.859Z,27.3
2017-08-27T10:09:31.525Z,27.7
2017-08-27T10:10:32.192Z,27.9
2017-08-27T10:11:32.860Z,28.3
2017-08-27T10:12:33.529Z,28.7
2017-08-27T10:13:34.498Z,28.9
2017-08-27T10:14:35.168Z,29.5
2017-08-27T10:15:35.837Z,30.1
2017-08-27T10:16:36.505Z,30.5
2017-08-27T10:17:37.174Z,30.5
2017-08-27T10:18:38.094Z,30.8
2017-08-27T10:19:38.774Z,30.8
2017-08-27T10:20:39.432Z,30.9
2017-08-27T10:21:40.102Z,30.7
2017-08-27T10:22:40.771Z,30.5
2017-08-27T10:23:41.693Z,30.5
2017-08-27T10:24:42.362Z,30.3
2017-08-27T10:25:43.068Z,30.1
2017-08-27T10:26:43.736Z,30.3
2017-08-27T10:27:44.404Z,30.7
2017-08-27T10:28:45.377Z,30.7
2017-08-27T10:29:46.046Z,31.0
2017-08-27T10:30:46.715Z,30.8
2017-08-27T10:31:47.386Z,31.0
2017-08-27T10:32:48.057Z,30.7
2017-08-27T10:33:49.029Z,30.4
2017-08-27T10:34:49.700Z,29.8
2017-08-27T10:35:50.370Z,30.2
2017-08-27T10:36:51.073Z,30.3
2017-08-27T10:37:51.743Z,30.9
2017-08-27T10:38:52.713Z,31.6
2017-08-27T10:39:53.382Z,32.2
2017-08-27T10:40:54.051Z,32.1
2017-08-27T10:41:54.722Z,32.5
2017-08-27T10:42:55.393Z,33.0
2017-08-27T10:43:56.361Z,33.4
2017-08-27T10:44:57.032Z,33.5
2017-08-27T10:45:57.700Z,33.6
2017-08-27T10:46:58.370Z,33.6
2017-08-27T10:47:59.041Z,33.9
2017-08-27T10:48:59.997Z,33.6
2017-08-27T10:50:00.669Z,33.5
2017-08-27T10:51:01.340Z,33.8
2017-08-27T10:52:02.011Z,34.2
2017-08-27T10:53:02.681Z,34.1
2017-08-27T10:54:03.604Z,34.2
2017-08-27T10:55:04.277Z,34.6
2017-08-27T10:56:04.987Z,35.0
2017-08-27T10:57:05.656Z,34.3
2017-08-27T10:58:06.327Z,34.0
2017-08-27T10:59:07.301Z,34.4
2017-08-27T11:00:07.973Z,34.2
2017-08-27T11:01:08.657Z,34.7
2017-08-27T11:02:09.316Z,35.2
2017-08-27T11:03:09.989Z,35.3
2017-08-27T11:04:10.966Z,35.4
2017-08-27T11:05:11.636Z,35.7
2017-08-27T11:06:12.311Z,35.9
2017-08-27T11:07:12.984Z,36.2
2017-08-27T11:08:13.657Z,36.5
2017-08-27T11:09:14.630Z,35.7
2017-08-27T11:10:15.302Z,35.7
2017-08-27T11:11:15.975Z,36.1
2017-08-27T11:12:16.648Z,36.4
2017-08-27T11:13:17.359Z,36.2
2017-08-27T11:14:18.284Z,36.0
2017-08-27T11:15:18.957Z,35.6
2017-08-27T11:16:19.628Z,34.5
2017-08-27T11:17:20.304Z,34.2
2017-08-27T11:18:20.979Z,35.0
2017-08-27T11:19:21.954Z,35.4
2017-08-27T11:20:22.630Z,35.7
2017-08-27T11:21:23.302Z,36.0
2017-08-27T11:22:23.976Z,36.2
2017-08-27T11:23:24.652Z,36.6
2017-08-27T11:24:25.579Z,36.9
2017-08-27T11:25:26.251Z,36.2
2017-08-27T11:26:26.926Z,36.0
2017-08-27T11:27:27.600Z,36.1
2017-08-27T11:28:28.279Z,36.0
2017-08-27T11:29:29.255Z,36.4
2017-08-27T11:30:29.930Z,36.6
2017-08-27T11:31:30.605Z,36.7
2017-08-27T11:32:31.280Z,36.6
2017-08-27T11:33:31.993Z,36.9
2017-08-27T11:34:32.971Z,37.1
2017-08-27T11:35:33.682Z,37.1
2017-08-27T11:36:34.354Z,37.5
2017-08-27T11:37:35.027Z,36.4
2017-08-27T11:38:35.704Z,37.2
2017-08-27T11:39:36.628Z,36.1
2017-08-27T11:40:37.304Z,36.8
2017-08-27T11:41:37.986Z,37.8
2017-08-27T11:42:38.656Z,38.6
2017-08-27T11:43:39.348Z,38.8
2017-08-27T11:44:40.323Z,39.3
2017-08-27T11:45:41.001Z,38.9
2017-08-27T11:46:41.675Z,39.1
2017-08-27T11:47:42.349Z,38.5
2017-08-27T11:48:43.060Z,38.1
2017-08-27T11:49:43.982Z,38.3
2017-08-27T11:50:44.656Z,37.5
2017-08-27T11:51:45.331Z,37.2
2017-08-27T11:52:46.006Z,38.0
2017-08-27T11:53:46.684Z,37.1
2017-08-27T11:54:47.644Z,36.0
2017-08-27T11:55:48.317Z,35.3
2017-08-27T11:56:48.992Z,35.6
2017-08-27T11:57:49.664Z,36.6
2017-08-27T11:58:50.336Z,36.8
2017-08-27T11:59:51.342Z,35.9
2017-08-27T12:00:52.018Z,36.0
2017-08-27T12:01:52.690Z,36.1
2017-08-27T12:02:53.363Z,34.6
2017-08-27T12:03:54.033Z,34.0
2017-08-27T12:04:55.003Z,33.3
2017-08-27T12:05:55.673Z,32.7
2017-08-27T12:06:56.343Z,32.2
2017-08-27T12:07:57.012Z,31.4
2017-08-27T12:08:57.683Z,31.1
2017-08-27T12:09:58.604Z,30.4
2017-08-27T12:10:59.272Z,29.8
2017-08-27T12:11:59.943Z,29.1
2017-08-27T12:13:00.612Z,28.9
2017-08-27T12:14:01.280Z,28.5
2017-08-27T12:15:02.249Z,28.4
2017-08-27T12:16:02.920Z,28.2
2017-08-27T12:17:03.626Z,28.1
2017-08-27T12:18:04.293Z,28.2
2017-08-27T12:19:04.961Z,28.2
2017-08-27T12:20:05.882Z,28.5
2017-08-27T12:21:06.551Z,28.9
2017-08-27T12:22:07.222Z,30.5
2017-08-27T12:23:07.894Z,32.2
2017-08-27T12:24:08.566Z,33.5
2017-08-27T12:25:09.486Z,34.5
2017-08-27T12:26:10.187Z,33.7
2017-08-27T12:27:10.854Z,33.0
2017-08-27T12:28:11.525Z,32.9
2017-08-27T12:29:12.197Z,34.2
2017-08-27T12:30:13.121Z,34.9
2017-08-27T12:31:13.787Z,35.0
2017-08-27T12:32:14.454Z,35.0
2017-08-27T12:33:15.126Z,35.0
2017-08-27T12:34:15.802Z,36.0
2017-08-27T12:35:16.774Z,37.0
2017-08-27T12:36:17.446Z,37.7
2017-08-27T12:37:18.154Z,38.2
2017-08-27T12:38:18.827Z,37.8
2017-08-27T12:39:19.531Z,36.1
2017-08-27T12:40:20.502Z,35.3
2017-08-27T12:41:21.171Z,35.0
2017-08-27T12:42:21.841Z,34.5
2017-08-27T12:43:22.510Z,34.4
2017-08-27T12:44:23.179Z,33.9
2017-08-27T12:45:24.098Z,33.5
2017-08-27T12:46:24.768Z,33.3
2017-08-27T12:47:25.435Z,32.8
2017-08-27T12:48:26.103Z,32.6
2017-08-27T12:49:26.776Z,32.3
2017-08-27T12:50:27.727Z,32.0
2017-08-27T12:51:28.397Z,31.3
2017-08-27T12:52:29.066Z,31.2
2017-08-27T12:53:29.736Z,31.0
2017-08-27T12:54:30.403Z,30.9
2017-08-27T12:55:31.329Z,30.8
2017-08-27T12:56:31.998Z,30.7
2017-08-27T12:57:32.668Z,30.8
2017-08-27T12:58:33.342Z,32.4
2017-08-27T12:59:34.016Z,32.2
2017-08-27T13:00:34.982Z,32.2
2017-08-27T13:01:35.653Z,32.2
2017-08-27T13:02:36.321Z,33.2
2017-08-27T13:03:36.989Z,34.3
2017-08-27T13:04:37.658Z,34.5
2017-08-27T13:05:38.628Z,36.0
2017-08-27T13:06:39.298Z,36.1
2017-08-27T13:07:39.966Z,35.5
2017-08-27T13:08:40.639Z,35.9
2017-08-27T13:09:41.310Z,37.0
2017-08-27T13:10:42.281Z,36.1
2017-08-27T13:11:42.954Z,35.3
2017-08-27T13:12:43.620Z,36.5
2017-08-27T13:13:44.292Z,37.2
2017-08-27T13:14:44.966Z,37.4
2017-08-27T13:15:45.933Z,37.8
2017-08-27T13:16:46.604Z,38.4
2017-08-27T13:17:47.274Z,38.4
2017-08-27T13:18:47.992Z,36.6
2017-08-27T13:19:48.662Z,36.0
2017-08-27T13:20:49.635Z,37.0
2017-08-27T13:21:50.307Z,37.6
2017-08-27T13:22:50.981Z,38.2
2017-08-27T13:23:51.657Z,38.8
2017-08-27T13:24:52.381Z,39.0
2017-08-27T13:25:53.352Z,39.1
2017-08-27T13:26:54.023Z,39.0
2017-08-27T13:27:54.696Z,38.8